sensor_id;sensor_type;location;lat;lon;timestamp;P1;durP1;ratioP1;P2;durP2;ratioP2
11203;SDS011;5659;49.408;11.116;2022-12-07T00:01:42;12.67;;;10.60;;
11203;SDS011;5659;49.408;11.116;2022-12-07T00:04:10;12.23;;;9.30;;
11203;SDS011;5659;49.408;11.116;2022-12-07T00:06:37;11.37;;;9.27;;
11203;SDS011;5659;49.408;11.116;2022-12-07T00:09:04;10.90;;;9.67;;
11203;SDS011;5659;49.408;11.116;2022-12-07T00:11:30;10.27;;;9.23;;
11203;SDS011;5659;49.408;11.116;2022-12-07T00:13:57;11.87;;;9.77;;
11203;SDS011;5659;49.408;11.116;2022-12-07T00:16:25;11.23;;;9.20;;
11203;SDS011;5659;49.408;11.116;2022-12-07T00:18:51;15.20;;;9.97;;
11203;SDS011;5659;49.408;11.116;2022-12-07T00:21:18;14.57;;;9.43;;
11203;SDS011;5659;49.408;11.116;2022-12-07T00:23:45;11.20;;;9.70;;
11203;SDS011;5659;49.408;11.116;2022-12-07T00:28:37;10.70;;;9.40;;
11203;SDS011;5659;49.408;11.116;2022-12-07T00:31:04;12.37;;;10.40;;
11203;SDS011;5659;49.408;11.116;2022-12-07T00:33:31;12.53;;;10.93;;
11203;SDS011;5659;49.408;11.116;2022-12-07T00:35:57;12.57;;;10.77;;
11203;SDS011;5659;49.408;11.116;2022-12-07T00:38:24;12.73;;;10.83;;
11203;SDS011;5659;49.408;11.116;2022-12-07T00:40:56;13.97;;;11.20;;
11203;SDS011;5659;49.408;11.116;2022-12-07T00:43:22;12.73;;;11.07;;
11203;SDS011;5659;49.408;11.116;2022-12-07T00:45:48;14.40;;;10.90;;
11203;SDS011;5659;49.408;11.116;2022-12-07T00:48:14;12.70;;;10.67;;
11203;SDS011;5659;49.408;11.116;2022-12-07T00:50:40;12.37;;;10.77;;
11203;SDS011;5659;49.408;11.116;2022-12-07T00:53:06;13.20;;;10.40;;
11203;SDS011;5659;49.408;11.116;2022-12-07T00:55:33;12.43;;;10.43;;
11203;SDS011;5659;49.408;11.116;2022-12-07T00:57:59;11.90;;;10.63;;
11203;SDS011;5659;49.408;11.116;2022-12-07T01:00:25;14.13;;;11.43;;
11203;SDS011;5659;49.408;11.116;2022-12-07T01:02:51;13.27;;;10.73;;
11203;SDS011;5659;49.408;11.116;2022-12-07T01:05:17;12.53;;;10.80;;
11203;SDS011;5659;49.408;11.116;2022-12-07T01:07:43;13.60;;;11.00;;
11203;SDS011;5659;49.408;11.116;2022-12-07T01:10:11;12.73;;;11.27;;
11203;SDS011;5659;49.408;11.116;2022-12-07T01:12:37;15.30;;;10.80;;
11203;SDS011;5659;49.408;11.116;2022-12-07T01:15:03;15.47;;;10.97;;
11203;SDS011;5659;49.408;11.116;2022-12-07T01:17:29;12.97;;;11.20;;
11203;SDS011;5659;49.408;11.116;2022-12-07T01:19:55;14.60;;;11.13;;
11203;SDS011;5659;49.408;11.116;2022-12-07T01:22:21;14.07;;;11.57;;
11203;SDS011;5659;49.408;11.116;2022-12-07T01:24:47;13.10;;;11.27;;
11203;SDS011;5659;49.408;11.116;2022-12-07T01:27:13;14.90;;;11.37;;
11203;SDS011;5659;49.408;11.116;2022-12-07T01:29:39;13.33;;;11.47;;
11203;SDS011;5659;49.408;11.116;2022-12-07T01:32:08;14.47;;;11.77;;
11203;SDS011;5659;49.408;11.116;2022-12-07T01:34:34;14.23;;;11.37;;
11203;SDS011;5659;49.408;11.116;2022-12-07T01:37:00;14.30;;;11.40;;
11203;SDS011;5659;49.408;11.116;2022-12-07T01:39:26;13.13;;;11.47;;
11203;SDS011;5659;49.408;11.116;2022-12-07T01:41:52;14.73;;;11.83;;
11203;SDS011;5659;49.408;11.116;2022-12-07T01:51:46;14.47;;;11.83;;
11203;SDS011;5659;49.408;11.116;2022-12-07T01:54:13;15.20;;;12.07;;
11203;SDS011;5659;49.408;11.116;2022-12-07T01:56:40;15.27;;;12.23;;
11203;SDS011;5659;49.408;11.116;2022-12-07T01:59:08;16.47;;;12.57;;
11203;SDS011;5659;49.408;11.116;2022-12-07T02:01:34;17.50;;;13.27;;
11203;SDS011;5659;49.408;11.116;2022-12-07T02:04:00;14.60;;;12.67;;
11203;SDS011;5659;49.408;11.116;2022-12-07T02:06:26;17.67;;;12.93;;
11203;SDS011;5659;49.408;11.116;2022-12-07T02:08:52;14.63;;;11.97;;
11203;SDS011;5659;49.408;11.116;2022-12-07T02:11:19;15.53;;;13.27;;
11203;SDS011;5659;49.408;11.116;2022-12-07T02:13:45;15.63;;;13.20;;
11203;SDS011;5659;49.408;11.116;2022-12-07T02:18:54;17.00;;;13.77;;
11203;SDS011;5659;49.408;11.116;2022-12-07T02:24:19;21.23;;;14.73;;
11203;SDS011;5659;49.408;11.116;2022-12-07T02:26:58;20.53;;;14.40;;
11203;SDS011;5659;49.408;11.116;2022-12-07T02:29:32;16.73;;;13.07;;
11203;SDS011;5659;49.408;11.116;2022-12-07T02:34:59;18.70;;;14.77;;
11203;SDS011;5659;49.408;11.116;2022-12-07T02:40:17;20.27;;;15.07;;
11203;SDS011;5659;49.408;11.116;2022-12-07T02:42:49;19.53;;;15.50;;
11203;SDS011;5659;49.408;11.116;2022-12-07T02:45:17;20.40;;;15.60;;
11203;SDS011;5659;49.408;11.116;2022-12-07T02:47:44;20.37;;;15.30;;
11203;SDS011;5659;49.408;11.116;2022-12-07T02:50:11;19.53;;;14.97;;
11203;SDS011;5659;49.408;11.116;2022-12-07T02:52:37;20.93;;;15.03;;
11203;SDS011;5659;49.408;11.116;2022-12-07T02:55:03;20.43;;;15.37;;
11203;SDS011;5659;49.408;11.116;2022-12-07T03:00:22;22.67;;;16.37;;
11203;SDS011;5659;49.408;11.116;2022-12-07T03:18:34;23.43;;;16.37;;
11203;SDS011;5659;49.408;11.116;2022-12-07T03:21:02;22.40;;;15.73;;
11203;SDS011;5659;49.408;11.116;2022-12-07T03:23:29;19.63;;;15.27;;
11203;SDS011;5659;49.408;11.116;2022-12-07T03:25:58;22.30;;;16.50;;
11203;SDS011;5659;49.408;11.116;2022-12-07T03:28:27;22.50;;;17.00;;
11203;SDS011;5659;49.408;11.116;2022-12-07T03:30:56;22.90;;;17.40;;
11203;SDS011;5659;49.408;11.116;2022-12-07T03:33:28;23.80;;;17.93;;
11203;SDS011;5659;49.408;11.116;2022-12-07T03:36:00;24.77;;;17.27;;
11203;SDS011;5659;49.408;11.116;2022-12-07T03:38:36;22.47;;;17.07;;
11203;SDS011;5659;49.408;11.116;2022-12-07T03:41:08;25.57;;;17.97;;
11203;SDS011;5659;49.408;11.116;2022-12-07T03:43:35;23.27;;;17.67;;
11203;SDS011;5659;49.408;11.116;2022-12-07T03:48:40;23.87;;;17.83;;
11203;SDS011;5659;49.408;11.116;2022-12-07T03:53:36;24.87;;;17.87;;
11203;SDS011;5659;49.408;11.116;2022-12-07T03:56:06;21.93;;;17.23;;
11203;SDS011;5659;49.408;11.116;2022-12-07T03:58:32;26.03;;;18.23;;
11203;SDS011;5659;49.408;11.116;2022-12-07T04:00:58;26.50;;;17.77;;
11203;SDS011;5659;49.408;11.116;2022-12-07T04:03:24;25.83;;;18.77;;
11203;SDS011;5659;49.408;11.116;2022-12-07T04:05:50;25.53;;;16.93;;
11203;SDS011;5659;49.408;11.116;2022-12-07T04:08:16;23.60;;;17.73;;
11203;SDS011;5659;49.408;11.116;2022-12-07T04:10:42;24.77;;;17.83;;
11203;SDS011;5659;49.408;11.116;2022-12-07T04:13:08;27.67;;;18.97;;
11203;SDS011;5659;49.408;11.116;2022-12-07T04:15:34;26.83;;;18.97;;
11203;SDS011;5659;49.408;11.116;2022-12-07T04:18:00;24.97;;;17.93;;
11203;SDS011;5659;49.408;11.116;2022-12-07T04:20:26;26.10;;;18.27;;
11203;SDS011;5659;49.408;11.116;2022-12-07T04:22:52;26.77;;;18.40;;
11203;SDS011;5659;49.408;11.116;2022-12-07T04:25:18;28.27;;;19.37;;
11203;SDS011;5659;49.408;11.116;2022-12-07T04:27:44;26.27;;;19.40;;
11203;SDS011;5659;49.408;11.116;2022-12-07T04:30:10;30.17;;;19.50;;
11203;SDS011;5659;49.408;11.116;2022-12-07T04:32:36;29.80;;;20.00;;
11203;SDS011;5659;49.408;11.116;2022-12-07T04:35:02;32.63;;;21.00;;
11203;SDS011;5659;49.408;11.116;2022-12-07T04:37:28;32.37;;;21.00;;
11203;SDS011;5659;49.408;11.116;2022-12-07T04:39:54;31.23;;;20.33;;
11203;SDS011;5659;49.408;11.116;2022-12-07T04:42:20;33.77;;;21.23;;
11203;SDS011;5659;49.408;11.116;2022-12-07T04:44:46;33.60;;;21.23;;
11203;SDS011;5659;49.408;11.116;2022-12-07T04:47:12;34.83;;;23.10;;
11203;SDS011;5659;49.408;11.116;2022-12-07T04:49:38;34.93;;;23.50;;
11203;SDS011;5659;49.408;11.116;2022-12-07T04:52:04;37.20;;;24.17;;
11203;SDS011;5659;49.408;11.116;2022-12-07T04:54:30;35.63;;;23.17;;
11203;SDS011;5659;49.408;11.116;2022-12-07T04:56:56;36.30;;;23.27;;
11203;SDS011;5659;49.408;11.116;2022-12-07T04:59:22;39.00;;;23.97;;
11203;SDS011;5659;49.408;11.116;2022-12-07T05:01:48;40.07;;;23.73;;
11203;SDS011;5659;49.408;11.116;2022-12-07T05:04:14;40.77;;;23.97;;
11203;SDS011;5659;49.408;11.116;2022-12-07T05:06:41;36.17;;;24.43;;
11203;SDS011;5659;49.408;11.116;2022-12-07T05:09:07;38.87;;;24.57;;
11203;SDS011;5659;49.408;11.116;2022-12-07T05:11:33;38.87;;;24.37;;
11203;SDS011;5659;49.408;11.116;2022-12-07T05:16:31;38.07;;;24.57;;
11203;SDS011;5659;49.408;11.116;2022-12-07T05:18:57;38.50;;;25.07;;
11203;SDS011;5659;49.408;11.116;2022-12-07T05:21:23;39.90;;;25.23;;
11203;SDS011;5659;49.408;11.116;2022-12-07T05:23:49;37.93;;;24.00;;
11203;SDS011;5659;49.408;11.116;2022-12-07T05:26:15;35.33;;;24.57;;
11203;SDS011;5659;49.408;11.116;2022-12-07T05:28:41;38.73;;;25.13;;
11203;SDS011;5659;49.408;11.116;2022-12-07T05:31:07;39.10;;;24.87;;
11203;SDS011;5659;49.408;11.116;2022-12-07T05:33:33;40.43;;;25.33;;
11203;SDS011;5659;49.408;11.116;2022-12-07T05:35:59;39.47;;;26.60;;
11203;SDS011;5659;49.408;11.116;2022-12-07T05:38:30;40.53;;;25.67;;
11203;SDS011;5659;49.408;11.116;2022-12-07T05:40:59;42.77;;;26.90;;
11203;SDS011;5659;49.408;11.116;2022-12-07T05:43:26;42.50;;;25.90;;
11203;SDS011;5659;49.408;11.116;2022-12-07T05:45:52;36.00;;;24.40;;
11203;SDS011;5659;49.408;11.116;2022-12-07T05:48:18;37.17;;;24.07;;
11203;SDS011;5659;49.408;11.116;2022-12-07T05:50:44;44.70;;;26.30;;
11203;SDS011;5659;49.408;11.116;2022-12-07T05:53:12;40.73;;;25.73;;
11203;SDS011;5659;49.408;11.116;2022-12-07T05:55:38;42.80;;;27.10;;
11203;SDS011;5659;49.408;11.116;2022-12-07T05:58:04;41.77;;;26.03;;
11203;SDS011;5659;49.408;11.116;2022-12-07T06:00:49;43.13;;;26.53;;
11203;SDS011;5659;49.408;11.116;2022-12-07T06:03:15;43.47;;;26.10;;
11203;SDS011;5659;49.408;11.116;2022-12-07T06:05:41;42.70;;;26.73;;
11203;SDS011;5659;49.408;11.116;2022-12-07T06:08:07;41.03;;;26.60;;
11203;SDS011;5659;49.408;11.116;2022-12-07T06:10:33;40.07;;;26.03;;
11203;SDS011;5659;49.408;11.116;2022-12-07T06:12:59;42.30;;;26.40;;
11203;SDS011;5659;49.408;11.116;2022-12-07T06:15:25;43.83;;;26.83;;
11203;SDS011;5659;49.408;11.116;2022-12-07T06:17:51;44.77;;;27.83;;
11203;SDS011;5659;49.408;11.116;2022-12-07T06:20:17;40.03;;;26.63;;
11203;SDS011;5659;49.408;11.116;2022-12-07T06:22:43;40.37;;;25.90;;
11203;SDS011;5659;49.408;11.116;2022-12-07T06:25:09;41.60;;;26.90;;
11203;SDS011;5659;49.408;11.116;2022-12-07T06:27:35;40.20;;;27.27;;
11203;SDS011;5659;49.408;11.116;2022-12-07T06:30:01;42.20;;;27.60;;
11203;SDS011;5659;49.408;11.116;2022-12-07T06:32:31;38.97;;;25.10;;
11203;SDS011;5659;49.408;11.116;2022-12-07T06:34:57;45.43;;;26.83;;
11203;SDS011;5659;49.408;11.116;2022-12-07T06:37:23;42.10;;;26.47;;
11203;SDS011;5659;49.408;11.116;2022-12-07T06:39:49;44.00;;;26.60;;
11203;SDS011;5659;49.408;11.116;2022-12-07T06:42:15;40.83;;;25.73;;
11203;SDS011;5659;49.408;11.116;2022-12-07T06:44:41;40.50;;;25.60;;
11203;SDS011;5659;49.408;11.116;2022-12-07T06:47:07;40.37;;;24.97;;
11203;SDS011;5659;49.408;11.116;2022-12-07T06:49:34;41.70;;;26.40;;
11203;SDS011;5659;49.408;11.116;2022-12-07T06:52:00;38.53;;;25.90;;
11203;SDS011;5659;49.408;11.116;2022-12-07T06:54:26;37.57;;;25.47;;
11203;SDS011;5659;49.408;11.116;2022-12-07T06:56:55;40.00;;;25.57;;
11203;SDS011;5659;49.408;11.116;2022-12-07T06:59:21;41.40;;;25.53;;
11203;SDS011;5659;49.408;11.116;2022-12-07T07:01:47;39.70;;;26.10;;
11203;SDS011;5659;49.408;11.116;2022-12-07T07:04:13;37.63;;;24.53;;
11203;SDS011;5659;49.408;11.116;2022-12-07T07:06:39;41.47;;;26.43;;
11203;SDS011;5659;49.408;11.116;2022-12-07T07:09:05;35.47;;;23.53;;
11203;SDS011;5659;49.408;11.116;2022-12-07T07:11:31;39.20;;;24.63;;
11203;SDS011;5659;49.408;11.116;2022-12-07T07:13:57;39.20;;;24.60;;
11203;SDS011;5659;49.408;11.116;2022-12-07T07:16:27;40.20;;;24.67;;
11203;SDS011;5659;49.408;11.116;2022-12-07T07:18:53;36.67;;;24.50;;
11203;SDS011;5659;49.408;11.116;2022-12-07T07:21:19;36.27;;;23.40;;
11203;SDS011;5659;49.408;11.116;2022-12-07T07:23:45;38.90;;;26.20;;
11203;SDS011;5659;49.408;11.116;2022-12-07T07:26:11;37.03;;;24.13;;
11203;SDS011;5659;49.408;11.116;2022-12-07T07:28:37;37.37;;;23.93;;
11203;SDS011;5659;49.408;11.116;2022-12-07T07:31:03;34.20;;;22.80;;
11203;SDS011;5659;49.408;11.116;2022-12-07T07:33:29;34.77;;;22.53;;
11203;SDS011;5659;49.408;11.116;2022-12-07T07:35:55;41.50;;;23.90;;
11203;SDS011;5659;49.408;11.116;2022-12-07T07:38:21;32.93;;;22.13;;
11203;SDS011;5659;49.408;11.116;2022-12-07T07:40:47;35.13;;;23.37;;
11203;SDS011;5659;49.408;11.116;2022-12-07T07:43:13;34.77;;;23.20;;
11203;SDS011;5659;49.408;11.116;2022-12-07T07:45:39;38.33;;;22.37;;
11203;SDS011;5659;49.408;11.116;2022-12-07T07:48:05;36.60;;;22.90;;
11203;SDS011;5659;49.408;11.116;2022-12-07T07:50:31;36.43;;;22.43;;
11203;SDS011;5659;49.408;11.116;2022-12-07T07:52:57;34.40;;;21.87;;
11203;SDS011;5659;49.408;11.116;2022-12-07T07:55:23;30.33;;;20.97;;
11203;SDS011;5659;49.408;11.116;2022-12-07T07:57:49;31.33;;;21.37;;
11203;SDS011;5659;49.408;11.116;2022-12-07T08:00:15;33.60;;;21.73;;
11203;SDS011;5659;49.408;11.116;2022-12-07T08:02:42;34.60;;;22.40;;
11203;SDS011;5659;49.408;11.116;2022-12-07T08:05:08;34.93;;;22.80;;
11203;SDS011;5659;49.408;11.116;2022-12-07T08:07:34;36.37;;;23.03;;
11203;SDS011;5659;49.408;11.116;2022-12-07T08:10:00;34.47;;;21.63;;
11203;SDS011;5659;49.408;11.116;2022-12-07T08:12:26;31.20;;;21.93;;
11203;SDS011;5659;49.408;11.116;2022-12-07T08:14:52;31.47;;;21.87;;
11203;SDS011;5659;49.408;11.116;2022-12-07T08:17:18;33.37;;;22.33;;
11203;SDS011;5659;49.408;11.116;2022-12-07T08:19:44;32.37;;;22.10;;
11203;SDS011;5659;49.408;11.116;2022-12-07T08:22:10;33.43;;;21.97;;
11203;SDS011;5659;49.408;11.116;2022-12-07T08:24:36;38.90;;;23.37;;
11203;SDS011;5659;49.408;11.116;2022-12-07T08:27:02;37.83;;;23.47;;
11203;SDS011;5659;49.408;11.116;2022-12-07T08:29:28;34.97;;;22.10;;
11203;SDS011;5659;49.408;11.116;2022-12-07T08:31:54;35.90;;;23.17;;
11203;SDS011;5659;49.408;11.116;2022-12-07T08:34:20;35.33;;;22.30;;
11203;SDS011;5659;49.408;11.116;2022-12-07T08:36:46;37.43;;;23.30;;
11203;SDS011;5659;49.408;11.116;2022-12-07T08:39:12;33.80;;;21.87;;
11203;SDS011;5659;49.408;11.116;2022-12-07T08:41:38;31.87;;;21.43;;
11203;SDS011;5659;49.408;11.116;2022-12-07T08:44:04;31.67;;;20.30;;
11203;SDS011;5659;49.408;11.116;2022-12-07T08:49:02;29.57;;;20.43;;
11203;SDS011;5659;49.408;11.116;2022-12-07T08:51:29;29.10;;;20.70;;
11203;SDS011;5659;49.408;11.116;2022-12-07T08:53:55;31.97;;;21.43;;
11203;SDS011;5659;49.408;11.116;2022-12-07T08:56:23;30.63;;;18.67;;
11203;SDS011;5659;49.408;11.116;2022-12-07T08:58:50;28.23;;;19.83;;
11203;SDS011;5659;49.408;11.116;2022-12-07T09:01:16;30.27;;;19.47;;
11203;SDS011;5659;49.408;11.116;2022-12-07T09:03:42;33.13;;;19.63;;
11203;SDS011;5659;49.408;11.116;2022-12-07T09:06:08;28.80;;;19.00;;
11203;SDS011;5659;49.408;11.116;2022-12-07T09:08:34;29.50;;;18.93;;
11203;SDS011;5659;49.408;11.116;2022-12-07T09:11:02;31.50;;;19.00;;
11203;SDS011;5659;49.408;11.116;2022-12-07T09:13:28;26.30;;;18.00;;
11203;SDS011;5659;49.408;11.116;2022-12-07T09:15:54;29.03;;;18.30;;
11203;SDS011;5659;49.408;11.116;2022-12-07T09:18:21;25.80;;;18.83;;
11203;SDS011;5659;49.408;11.116;2022-12-07T09:20:47;25.77;;;17.33;;
11203;SDS011;5659;49.408;11.116;2022-12-07T09:23:13;26.07;;;19.10;;
11203;SDS011;5659;49.408;11.116;2022-12-07T09:25:39;25.37;;;17.77;;
11203;SDS011;5659;49.408;11.116;2022-12-07T09:28:05;25.10;;;17.57;;
11203;SDS011;5659;49.408;11.116;2022-12-07T09:30:30;25.60;;;15.87;;
11203;SDS011;5659;49.408;11.116;2022-12-07T09:32:57;24.00;;;15.83;;
11203;SDS011;5659;49.408;11.116;2022-12-07T09:35:23;23.40;;;16.40;;
11203;SDS011;5659;49.408;11.116;2022-12-07T09:37:49;23.40;;;15.93;;
11203;SDS011;5659;49.408;11.116;2022-12-07T09:40:16;24.17;;;17.57;;
11203;SDS011;5659;49.408;11.116;2022-12-07T09:42:44;25.10;;;17.57;;
11203;SDS011;5659;49.408;11.116;2022-12-07T09:45:18;24.40;;;17.33;;
11203;SDS011;5659;49.408;11.116;2022-12-07T09:47:45;25.63;;;16.43;;
11203;SDS011;5659;49.408;11.116;2022-12-07T09:50:19;23.83;;;15.97;;
11203;SDS011;5659;49.408;11.116;2022-12-07T09:52:45;21.13;;;15.13;;
11203;SDS011;5659;49.408;11.116;2022-12-07T09:55:13;20.70;;;14.03;;
11203;SDS011;5659;49.408;11.116;2022-12-07T09:57:40;25.40;;;16.80;;
11203;SDS011;5659;49.408;11.116;2022-12-07T10:00:10;23.50;;;15.53;;
11203;SDS011;5659;49.408;11.116;2022-12-07T10:02:38;22.30;;;16.10;;
11203;SDS011;5659;49.408;11.116;2022-12-07T10:05:07;24.13;;;17.13;;
11203;SDS011;5659;49.408;11.116;2022-12-07T10:07:33;25.40;;;16.03;;
11203;SDS011;5659;49.408;11.116;2022-12-07T10:10:01;24.27;;;15.60;;
11203;SDS011;5659;49.408;11.116;2022-12-07T10:12:27;23.57;;;15.83;;
11203;SDS011;5659;49.408;11.116;2022-12-07T10:14:54;21.20;;;15.23;;
11203;SDS011;5659;49.408;11.116;2022-12-07T10:22:37;22.17;;;16.33;;
11203;SDS011;5659;49.408;11.116;2022-12-07T10:25:18;24.50;;;16.27;;
11203;SDS011;5659;49.408;11.116;2022-12-07T10:27:44;22.90;;;15.57;;
11203;SDS011;5659;49.408;11.116;2022-12-07T10:30:22;22.40;;;15.93;;
11203;SDS011;5659;49.408;11.116;2022-12-07T10:32:48;23.00;;;15.27;;
11203;SDS011;5659;49.408;11.116;2022-12-07T10:37:43;25.43;;;15.83;;
11203;SDS011;5659;49.408;11.116;2022-12-07T10:40:29;21.20;;;15.20;;
11203;SDS011;5659;49.408;11.116;2022-12-07T10:45:28;19.97;;;14.90;;
11203;SDS011;5659;49.408;11.116;2022-12-07T10:50:29;18.50;;;14.60;;
11203;SDS011;5659;49.408;11.116;2022-12-07T10:56:00;21.10;;;15.40;;
11203;SDS011;5659;49.408;11.116;2022-12-07T11:09:04;18.00;;;13.67;;
11203;SDS011;5659;49.408;11.116;2022-12-07T11:11:52;18.57;;;13.83;;
11203;SDS011;5659;49.408;11.116;2022-12-07T11:14:25;18.20;;;13.30;;
11203;SDS011;5659;49.408;11.116;2022-12-07T11:16:57;16.83;;;13.03;;
11203;SDS011;5659;49.408;11.116;2022-12-07T11:22:12;18.23;;;13.53;;
11203;SDS011;5659;49.408;11.116;2022-12-07T11:24:40;18.03;;;13.27;;
11203;SDS011;5659;49.408;11.116;2022-12-07T11:32:22;18.97;;;13.33;;
11203;SDS011;5659;49.408;11.116;2022-12-07T11:34:59;17.27;;;13.43;;
11203;SDS011;5659;49.408;11.116;2022-12-07T11:37:29;18.70;;;13.07;;
11203;SDS011;5659;49.408;11.116;2022-12-07T11:40:00;16.90;;;13.43;;
11203;SDS011;5659;49.408;11.116;2022-12-07T11:42:28;21.03;;;13.73;;
11203;SDS011;5659;49.408;11.116;2022-12-07T11:44:56;16.77;;;13.07;;
11203;SDS011;5659;49.408;11.116;2022-12-07T11:50:32;17.83;;;13.83;;
11203;SDS011;5659;49.408;11.116;2022-12-07T11:52:53;18.37;;;13.07;;
11203;SDS011;5659;49.408;11.116;2022-12-07T11:57:50;19.77;;;14.47;;
11203;SDS011;5659;49.408;11.116;2022-12-07T12:00:17;18.77;;;13.90;;
11203;SDS011;5659;49.408;11.116;2022-12-07T12:05:29;19.33;;;13.80;;
11203;SDS011;5659;49.408;11.116;2022-12-07T12:08:04;17.63;;;13.63;;
11203;SDS011;5659;49.408;11.116;2022-12-07T12:21:38;17.03;;;13.43;;
11203;SDS011;5659;49.408;11.116;2022-12-07T12:24:12;19.10;;;13.40;;
11203;SDS011;5659;49.408;11.116;2022-12-07T12:26:40;15.93;;;12.47;;
11203;SDS011;5659;49.408;11.116;2022-12-07T12:29:21;17.87;;;12.87;;
11203;SDS011;5659;49.408;11.116;2022-12-07T12:32:03;18.40;;;13.97;;
11203;SDS011;5659;49.408;11.116;2022-12-07T12:34:38;18.30;;;13.97;;
11203;SDS011;5659;49.408;11.116;2022-12-07T12:37:13;17.83;;;12.47;;
11203;SDS011;5659;49.408;11.116;2022-12-07T12:42:44;19.27;;;13.00;;
11203;SDS011;5659;49.408;11.116;2022-12-07T12:45:23;19.60;;;12.20;;
11203;SDS011;5659;49.408;11.116;2022-12-07T12:50:32;17.47;;;12.60;;
11203;SDS011;5659;49.408;11.116;2022-12-07T12:53:00;15.93;;;11.77;;
11203;SDS011;5659;49.408;11.116;2022-12-07T12:55:29;17.03;;;12.43;;
11203;SDS011;5659;49.408;11.116;2022-12-07T13:00:49;20.27;;;12.50;;
11203;SDS011;5659;49.408;11.116;2022-12-07T13:03:33;20.50;;;12.70;;
11203;SDS011;5659;49.408;11.116;2022-12-07T13:08:44;16.63;;;12.37;;
11203;SDS011;5659;49.408;11.116;2022-12-07T13:11:18;17.37;;;12.50;;
11203;SDS011;5659;49.408;11.116;2022-12-07T13:13:45;18.07;;;12.20;;
11203;SDS011;5659;49.408;11.116;2022-12-07T13:18:38;18.13;;;12.73;;
11203;SDS011;5659;49.408;11.116;2022-12-07T13:23:37;20.53;;;14.00;;
11203;SDS011;5659;49.408;11.116;2022-12-07T13:28:33;16.67;;;11.87;;
11203;SDS011;5659;49.408;11.116;2022-12-07T13:31:08;17.10;;;13.07;;
11203;SDS011;5659;49.408;11.116;2022-12-07T13:33:35;17.90;;;13.20;;
11203;SDS011;5659;49.408;11.116;2022-12-07T13:36:01;18.30;;;12.87;;
11203;SDS011;5659;49.408;11.116;2022-12-07T13:41:03;18.87;;;13.33;;
11203;SDS011;5659;49.408;11.116;2022-12-07T13:43:29;18.57;;;12.97;;
11203;SDS011;5659;49.408;11.116;2022-12-07T13:45:56;18.60;;;13.43;;
11203;SDS011;5659;49.408;11.116;2022-12-07T13:50:53;18.00;;;13.60;;
11203;SDS011;5659;49.408;11.116;2022-12-07T13:53:19;20.67;;;15.30;;
11203;SDS011;5659;49.408;11.116;2022-12-07T13:55:45;23.70;;;15.33;;
11203;SDS011;5659;49.408;11.116;2022-12-07T13:58:12;20.73;;;14.67;;
11203;SDS011;5659;49.408;11.116;2022-12-07T14:00:39;20.77;;;15.10;;
11203;SDS011;5659;49.408;11.116;2022-12-07T14:05:38;23.70;;;17.43;;
11203;SDS011;5659;49.408;11.116;2022-12-07T14:13:02;25.73;;;16.80;;
11203;SDS011;5659;49.408;11.116;2022-12-07T14:15:30;22.97;;;15.90;;
11203;SDS011;5659;49.408;11.116;2022-12-07T14:17:57;24.90;;;17.03;;
11203;SDS011;5659;49.408;11.116;2022-12-07T14:20:33;24.63;;;16.43;;
11203;SDS011;5659;49.408;11.116;2022-12-07T14:23:00;26.47;;;16.57;;
11203;SDS011;5659;49.408;11.116;2022-12-07T14:25:43;25.07;;;16.87;;
11203;SDS011;5659;49.408;11.116;2022-12-07T14:28:09;25.57;;;16.87;;
11203;SDS011;5659;49.408;11.116;2022-12-07T14:30:50;25.80;;;16.67;;
11203;SDS011;5659;49.408;11.116;2022-12-07T14:33:16;24.37;;;16.90;;
11203;SDS011;5659;49.408;11.116;2022-12-07T14:35:42;24.83;;;17.53;;
11203;SDS011;5659;49.408;11.116;2022-12-07T14:38:08;20.73;;;15.87;;
11203;SDS011;5659;49.408;11.116;2022-12-07T14:40:34;23.13;;;16.07;;
11203;SDS011;5659;49.408;11.116;2022-12-07T14:43:01;28.13;;;16.80;;
11203;SDS011;5659;49.408;11.116;2022-12-07T14:45:28;22.63;;;15.83;;
11203;SDS011;5659;49.408;11.116;2022-12-07T14:50:57;22.10;;;16.57;;
11203;SDS011;5659;49.408;11.116;2022-12-07T14:53:25;24.60;;;15.97;;
11203;SDS011;5659;49.408;11.116;2022-12-07T14:55:54;24.70;;;17.20;;
11203;SDS011;5659;49.408;11.116;2022-12-07T14:58:20;25.33;;;16.77;;
11203;SDS011;5659;49.408;11.116;2022-12-07T15:00:46;25.30;;;16.60;;
11203;SDS011;5659;49.408;11.116;2022-12-07T15:03:13;28.33;;;17.23;;
11203;SDS011;5659;49.408;11.116;2022-12-07T15:05:39;24.87;;;17.20;;
11203;SDS011;5659;49.408;11.116;2022-12-07T15:08:05;24.57;;;17.20;;
11203;SDS011;5659;49.408;11.116;2022-12-07T15:10:34;29.03;;;16.90;;
11203;SDS011;5659;49.408;11.116;2022-12-07T15:13:03;28.17;;;17.40;;
11203;SDS011;5659;49.408;11.116;2022-12-07T15:15:49;24.27;;;17.23;;
11203;SDS011;5659;49.408;11.116;2022-12-07T15:18:15;25.53;;;16.03;;
11203;SDS011;5659;49.408;11.116;2022-12-07T15:20:41;21.43;;;16.00;;
11203;SDS011;5659;49.408;11.116;2022-12-07T15:23:07;27.03;;;16.07;;
11203;SDS011;5659;49.408;11.116;2022-12-07T15:25:33;31.30;;;17.03;;
11203;SDS011;5659;49.408;11.116;2022-12-07T15:27:59;27.07;;;16.00;;
11203;SDS011;5659;49.408;11.116;2022-12-07T15:30:25;25.23;;;16.33;;
11203;SDS011;5659;49.408;11.116;2022-12-07T15:32:51;28.47;;;17.87;;
11203;SDS011;5659;49.408;11.116;2022-12-07T15:35:18;25.87;;;17.93;;
11203;SDS011;5659;49.408;11.116;2022-12-07T15:37:44;24.13;;;16.63;;
11203;SDS011;5659;49.408;11.116;2022-12-07T15:40:10;23.20;;;15.60;;
11203;SDS011;5659;49.408;11.116;2022-12-07T15:42:36;24.07;;;15.73;;
11203;SDS011;5659;49.408;11.116;2022-12-07T15:45:02;22.73;;;14.50;;
11203;SDS011;5659;49.408;11.116;2022-12-07T15:47:29;26.60;;;16.57;;
11203;SDS011;5659;49.408;11.116;2022-12-07T15:49:55;23.87;;;16.53;;
11203;SDS011;5659;49.408;11.116;2022-12-07T15:52:21;22.33;;;15.50;;
11203;SDS011;5659;49.408;11.116;2022-12-07T15:54:47;25.83;;;15.70;;
11203;SDS011;5659;49.408;11.116;2022-12-07T15:57:13;20.70;;;14.87;;
11203;SDS011;5659;49.408;11.116;2022-12-07T15:59:39;24.10;;;15.87;;
11203;SDS011;5659;49.408;11.116;2022-12-07T16:02:05;22.83;;;15.57;;
11203;SDS011;5659;49.408;11.116;2022-12-07T16:04:31;22.63;;;15.67;;
11203;SDS011;5659;49.408;11.116;2022-12-07T16:06:57;23.17;;;15.00;;
11203;SDS011;5659;49.408;11.116;2022-12-07T16:09:23;22.37;;;15.10;;
11203;SDS011;5659;49.408;11.116;2022-12-07T16:11:49;27.60;;;15.90;;
11203;SDS011;5659;49.408;11.116;2022-12-07T16:14:15;23.73;;;16.13;;
11203;SDS011;5659;49.408;11.116;2022-12-07T16:16:41;27.50;;;16.10;;
11203;SDS011;5659;49.408;11.116;2022-12-07T16:19:07;28.17;;;16.77;;
11203;SDS011;5659;49.408;11.116;2022-12-07T16:21:34;24.00;;;16.17;;
11203;SDS011;5659;49.408;11.116;2022-12-07T16:24:00;30.23;;;16.93;;
11203;SDS011;5659;49.408;11.116;2022-12-07T16:26:26;26.50;;;16.77;;
11203;SDS011;5659;49.408;11.116;2022-12-07T16:28:52;23.93;;;16.97;;
11203;SDS011;5659;49.408;11.116;2022-12-07T16:31:21;27.43;;;16.90;;
11203;SDS011;5659;49.408;11.116;2022-12-07T16:33:47;25.47;;;16.40;;
11203;SDS011;5659;49.408;11.116;2022-12-07T16:36:14;26.73;;;16.40;;
11203;SDS011;5659;49.408;11.116;2022-12-07T16:38:43;22.77;;;17.13;;
11203;SDS011;5659;49.408;11.116;2022-12-07T16:41:09;28.07;;;16.90;;